Time;durP1;ratioP1;P1;durP2;ratioP2;P2;SDS_P1;SDS_P2;PMS_P1;PMS_P2;Temp;Humidity;BMP_temperature;BMP_pressure;BME280_temperature;BME280_humidity;BME280_pressure;Samples;Min_cycle;Max_cycle;Signal;HPM_P1;HPM_P2
2022/05/10 00:00:19;;;;;;;3.50;2.20;;;;;;;7.05;100.00;91362.97;5023172;28;20045;-69
2022/05/10 00:02:54;;;;;;;2.08;1.92;;;;;;;6.90;100.00;91361.22;5022105;28;20076;-69
2022/05/10 00:05:30;;;;;;;1.65;1.55;;;;;;;6.84;100.00;91365.78;5029647;28;20022;-69
2022/05/10 00:07:56;;;;;;;2.53;2.33;;;;;;;6.83;100.00;91355.47;5032193;28;20476;-69
2022/05/10 00:10:23;;;;;;;1.75;1.65;;;;;;;6.79;100.00;91365.03;5031978;28;20030;-70
2022/05/10 00:12:48;;;;;;;1.90;1.60;;;;;;;6.79;100.00;91357.09;5021499;28;20423;-69
2022/05/10 00:15:14;;;;;;;2.10;1.90;;;;;;;6.79;100.00;91357.09;5022844;28;20025;-69
2022/05/10 00:17:41;;;;;;;2.35;1.73;;;;;;;6.77;100.00;91346.75;5020979;28;20059;-69
2022/05/10 00:20:10;;;;;;;2.85;1.92;;;;;;;6.81;100.00;91350.47;5031759;28;20495;-69
2022/05/10 00:22:37;;;;;;;1.70;1.60;;;;;;;6.77;100.00;91353.91;5031848;28;20076;-69
2022/05/10 00:25:03;;;;;;;2.00;1.90;;;;;;;6.77;100.00;91357.34;5031620;28;20049;-70
2022/05/10 00:27:29;;;;;;;1.70;1.60;;;;;;;6.73;100.00;91355.53;5031498;28;20144;-69
2022/05/10 00:29:54;;;;;;;2.55;2.00;;;;;;;6.67;100.00;91346.84;5031377;28;20427;-69
2022/05/10 00:32:21;;;;;;;1.85;1.75;;;;;;;6.60;100.00;91347.13;5031576;28;20025;-69
2022/05/10 00:34:47;;;;;;;3.72;2.17;;;;;;;6.66;100.00;91347.91;5021880;28;20032;-69
2022/05/10 00:37:14;;;;;;;3.53;2.17;;;;;;;6.71;100.00;91345.22;5023691;28;20021;-69
2022/05/10 00:39:40;;;;;;;3.05;1.95;;;;;;;6.70;100.00;91338.38;5030442;28;20022;-70
2022/05/10 00:42:49;;;;;;;1.88;1.75;;;;;;;6.71;100.00;91337.28;5031802;28;20104;-70
2022/05/10 00:45:18;;;;;;;2.15;1.92;;;;;;;6.69;100.00;91341.28;4989020;28;20571;-70
2022/05/10 00:47:51;;;;;;;1.73;1.58;;;;;;;6.67;100.00;91338.13;5025997;28;20056;-69
2022/05/10 00:50:24;;;;;;;6.60;2.20;;;;;;;6.72;100.00;91330.94;5030993;28;20439;-70
2022/05/10 00:53:04;;;;;;;2.30;2.10;;;;;;;6.69;100.00;91330.72;5020707;28;20021;-70
2022/05/10 00:55:41;;;;;;;3.00;2.17;;;;;;;6.78;100.00;91331.69;5029871;28;20030;-70
2022/05/10 00:58:23;;;;;;;1.80;1.70;;;;;;;6.86;100.00;91331.91;5029280;28;20549;-70
2022/05/10 01:00:49;;;;;;;2.22;2.13;;;;;;;6.91;100.00;91328.44;5029391;28;20450;-69
2022/05/10 01:03:35;;;;;;;2.20;2.00;;;;;;;6.84;100.00;91334.03;5030557;28;20022;-70
2022/05/10 01:06:16;;;;;;;1.70;1.60;;;;;;;6.61;100.00;91338.13;5028452;28;20021;-70
2022/05/10 01:09:01;;;;;;;2.28;2.03;;;;;;;6.39;100.00;91326.41;5028317;28;20025;-71
2022/05/10 01:11:42;;;;;;;3.58;2.00;;;;;;;6.23;100.00;91334.41;5028880;28;20029;-70
2022/05/10 01:14:14;;;;;;;2.10;1.90;;;;;;;6.14;100.00;91328.09;5029186;28;20439;-70
2022/05/10 01:16:40;;;;;;;3.92;2.38;;;;;;;6.11;100.00;91323.34;5028119;28;20021;-69
2022/05/10 01:19:05;;;;;;;1.88;1.77;;;;;;;6.18;100.00;91328.38;5030392;28;20018;-69
2022/05/10 01:22:04;;;;;;;2.28;2.08;;;;;;;6.14;100.00;91328.09;5030621;28;20036;-68
2022/05/10 01:24:46;;;;;;;3.28;2.17;;;;;;;6.15;100.00;91326.25;5029354;28;20111;-69
2022/05/10 01:27:29;;;;;;;3.13;2.10;;;;;;;6.28;100.00;91330.94;5029449;28;20175;-68
2022/05/10 01:29:57;;;;;;;2.10;1.70;;;;;;;6.28;100.00;91329.09;5029752;28;20034;-69
2022/05/10 01:35:23;;;;;;;2.63;1.98;;;;;;;6.07;100.00;91316.25;5030354;28;20031;-68
2022/05/10 01:37:54;;;;;;;2.08;1.77;;;;;;;6.00;100.00;91317.34;5030169;28;20025;-69
2022/05/10 01:40:28;;;;;;;2.08;1.88;;;;;;;6.09;100.00;91308.84;5027648;28;20052;-69
2022/05/10 01:43:01;;;;;;;2.22;1.85;;;;;;;6.15;100.00;91305.91;5029009;28;20041;-69
2022/05/10 01:45:32;;;;;;;;;;;;;;;6.22;100.00;91308.25;5028911;28;20018;-69
2022/05/10 01:48:00;;;;;;;1.98;1.80;;;;;;;6.34;100.00;91308.72;5030038;28;20390;-69
2022/05/10 01:50:35;;;;;;;2.70;2.50;;;;;;;6.36;100.00;91313.72;5029979;28;20036;-69
2022/05/10 01:53:11;;;;;;;2.05;1.83;;;;;;;6.56;100.00;91309.09;5027400;28;20087;-69
2022/05/10 01:56:17;;;;;;;1.98;1.40;;;;;;;6.68;100.00;91298.19;5029871;28;20021;-69
2022/05/10 01:58:45;;;;;;;3.45;2.00;;;;;;;6.69;100.00;91304.28;4988162;28;20479;-69
2022/05/10 02:01:13;;;;;;;1.80;1.70;;;;;;;6.50;100.00;91301.50;4988477;28;20026;-69
2022/05/10 02:03:39;;;;;;;2.10;1.80;;;;;;;6.37;100.00;91297.59;5009564;28;20041;-69
2022/05/10 02:06:26;;;;;;;1.60;1.50;;;;;;;6.33;100.00;91298.44;5029946;28;20075;-69
2022/05/10 02:09:15;;;;;;;2.22;1.77;;;;;;;6.23;100.00;91293.97;5028796;28;20068;-69
2022/05/10 02:11:46;;;;;;;5.15;3.60;;;;;;;6.18;100.00;91297.47;5027252;28;20148;-69
2022/05/10 02:14:28;;;;;;;5.70;2.17;;;;;;;6.17;100.00;91297.72;5018781;28;20116;-69
2022/05/10 02:17:35;;;;;;;2.28;2.08;;;;;;;6.24;100.00;91291.06;5029011;28;20036;-69
2022/05/10 02:20:21;;;;;;;2.10;1.90;;;;;;;6.11;100.00;91291.66;5027340;28;20022;-69
2022/05/10 02:22:55;;;;;;;2.25;2.03;;;;;;;5.99;100.00;91294.63;5027987;28;20116;-69
2022/05/10 02:25:25;;;;;;;2.30;2.10;;;;;;;5.86;100.00;91294.41;5027339;28;20108;-69
2022/05/10 02:28:01;;;;;;;1.50;1.40;;;;;;;5.79;100.00;91291.25;5029674;28;20476;-69
2022/05/10 02:30:31;;;;;;;2.05;1.77;;;;;;;5.70;100.00;91293.69;5028145;28;20037;-69
2022/05/10 02:33:09;;;;;;;1.85;1.75;;;;;;;5.67;100.00;91297.63;5030403;28;20033;-69
2022/05/10 02:35:50;;;;;;;2.15;1.95;;;;;;;5.76;100.00;91295.22;5030942;28;20079;-69
2022/05/10 02:38:20;;;;;;;3.72;1.98;;;;;;;5.80;100.00;91298.13;5030873;28;20026;-69
2022/05/10 02:40:46;;;;;;;1.98;1.80;;;;;;;6.03;100.00;91291.47;5030944;28;20025;-69
2022/05/10 02:43:17;;;;;;;2.50;1.83;;;;;;;6.26;100.00;91290.78;5030957;28;20120;-69
2022/05/10 02:45:43;;;;;;;2.38;2.08;;;;;;;6.18;100.00;91286.09;5030920;28;20488;-69
2022/05/10 02:48:20;;;;;;;2.65;2.10;;;;;;;6.00;100.00;91298.06;5030872;28;20044;-68
2022/05/10 02:50:46;;;;;;;3.47;2.53;;;;;;;5.85;100.00;91300.75;5030599;28;20052;-68
2022/05/10 02:53:11;;;;;;;2.45;2.25;;;;;;;5.71;100.00;91301.31;5030714;28;20029;-68
2022/05/10 02:55:43;;;;;;;2.47;2.17;;;;;;;5.76;100.00;91297.09;5030457;28;20072;-69
2022/05/10 02:58:35;;;;;;;1.67;1.58;;;;;;;5.70;100.00;91298.97;5033853;28;20056;-68
2022/05/10 03:01:20;;;;;;;2.70;2.00;;;;;;;5.83;100.00;91300.22;5028258;28;20555;-69
2022/05/10 03:03:46;;;;;;;2.22;1.92;;;;;;;5.72;100.00;91294.19;5019680;28;20040;-68
2022/05/10 03:06:22;;;;;;;2.17;1.98;;;;;;;5.59;100.00;91297.41;5030765;28;20033;-68
2022/05/10 03:08:49;;;;;;;2.13;2.00;;;;;;;5.50;100.00;91297.16;5030722;28;20025;-68
2022/05/10 03:11:15;;;;;;;2.15;1.95;;;;;;;5.44;100.00;91290.31;5030471;28;20064;-68
2022/05/10 03:13:41;;;;;;;2.40;2.20;;;;;;;5.47;100.00;91283.72;5030655;28;20033;-68
2022/05/10 03:16:07;;;;;;;2.13;1.67;;;;;;;5.65;100.00;91304.22;5030492;28;20040;-68
2022/05/10 03:18:32;;;;;;;2.80;2.47;;;;;;;5.62;100.00;91299.50;5030442;28;20025;-68
2022/05/10 03:20:57;;;;;;;2.30;2.10;;;;;;;5.49;100.00;91279.75;5030429;28;20034;-68
2022/05/10 03:23:24;;;;;;;5.25;2.20;;;;;;;5.58;100.00;91301.09;5030616;28;20033;-68
2022/05/10 03:25:49;;;;;;;1.90;1.80;;;;;;;5.57;100.00;91300.31;5030566;28;20087;-68
2022/05/10 03:28:15;;;;;;;2.30;1.95;;;;;;;5.60;100.00;91293.69;5033488;28;20491;-68
2022/05/10 03:30:41;;;;;;;2.28;2.08;;;;;;;5.63;100.00;91304.50;5034054;28;20108;-68
2022/05/10 03:33:06;;;;;;;2.90;2.22;;;;;;;5.72;100.00;91292.34;5033768;28;20376;-69
2022/05/10 03:35:33;;;;;;;4.78;2.25;;;;;;;6.03;100.00;91308.09;5033965;28;20087;-69
2022/05/10 03:37:58;;;;;;;2.53;1.77;;;;;;;6.19;100.00;91298.25;5033787;28;20116;-69
2022/05/10 03:40:23;;;;;;;2.78;2.00;;;;;;;6.27;100.00;91302.94;5033821;28;20152;-69
2022/05/10 03:42:51;;;;;;;2.30;2.10;;;;;;;6.34;100.00;91300.81;5033825;28;20022;-68
2022/05/10 03:45:19;;;;;;;2.03;1.83;;;;;;;6.41;100.00;91293.34;5033736;28;20029;-68
2022/05/10 03:47:46;;;;;;;2.17;1.85;;;;;;;6.57;100.00;91302.75;5033679;28;20479;-69
2022/05/10 03:50:14;;;;;;;3.25;1.95;;;;;;;6.70;100.00;91303.22;5033482;28;20048;-68
2022/05/10 03:52:40;;;;;;;2.35;1.95;;;;;;;6.76;100.00;91305.53;5033515;28;20492;-68
2022/05/10 03:55:08;;;;;;;3.08;2.40;;;;;;;6.77;100.00;91307.09;5033575;28;20045;-69
2022/05/10 03:57:34;;;;;;;2.25;2.05;;;;;;;6.72;100.00;91303.72;5033464;28;20041;-69
2022/05/10 04:00:00;;;;;;;3.05;2.33;;;;;;;6.70;100.00;91297.91;5033541;28;20026;-68
2022/05/10 04:02:25;;;;;;;3.22;2.17;;;;;;;6.67;100.00;91309.84;5033426;28;20049;-69
2022/05/10 04:04:51;;;;;;;3.90;2.40;;;;;;;6.75;100.00;91303.16;5016846;28;20128;-69
2022/05/10 04:07:16;;;;;;;2.45;2.25;;;;;;;6.80;100.00;91311.88;5012967;28;20105;-67
2022/05/10 04:09:42;;;;;;;2.22;1.95;;;;;;;7.03;100.00;91320.13;5013278;28;20084;-67
2022/05/10 04:12:08;;;;;;;2.90;2.50;;;;;;;7.16;100.00;91319.50;5013157;28;20038;-68
2022/05/10 04:14:33;;;;;;;4.18;2.97;;;;;;;7.07;100.00;91315.88;5013179;28;20591;-68
2022/05/10 04:16:59;;;;;;;3.42;2.40;;;;;;;7.16;100.00;91330.09;5013011;28;20040;-69
2022/05/10 04:19:24;;;;;;;1.70;1.60;;;;;;;7.05;100.00;91299.50;5012670;28;20087;-69
2022/05/10 04:21:50;;;;;;;2.03;1.67;;;;;;;7.18;100.00;91323.44;5013118;28;20022;-67
2022/05/10 04:24:16;;;;;;;3.60;2.60;;;;;;;7.05;100.00;91323.28;5012791;28;20022;-68
2022/05/10 04:26:42;;;;;;;2.72;1.92;;;;;;;7.12;100.00;91319.28;5013252;28;20025;-68
2022/05/10 04:29:07;;;;;;;2.38;2.17;;;;;;;7.20;100.00;91325.81;5012942;28;20048;-69
2022/05/10 04:31:33;;;;;;;2.70;2.22;;;;;;;7.30;100.00;91319.66;5019610;28;20033;-68
2022/05/10 04:33:58;;;;;;;3.75;2.63;;;;;;;7.47;100.00;91315.53;5032898;28;20026;-68
2022/05/10 04:36:25;;;;;;;2.10;1.90;;;;;;;7.55;100.00;91315.97;5032694;28;20112;-69
2022/05/10 04:38:51;;;;;;;2.30;2.10;;;;;;;7.69;100.00;91324.81;5032229;28;20021;-69
2022/05/10 04:41:25;;;;;;;2.67;2.20;;;;;;;7.82;100.00;91326.81;5032739;28;20017;-68
2022/05/10 04:43:56;;;;;;;2.33;1.90;;;;;;;8.00;100.00;91323.41;5032565;28;20022;-69
2022/05/10 04:46:21;;;;;;;5.50;2.50;;;;;;;8.06;100.00;91327.59;5032536;28;20041;-69
2022/05/10 04:48:47;;;;;;;2.90;2.38;;;;;;;8.17;100.00;91324.81;5032261;28;20029;-69
2022/05/10 04:51:13;;;;;;;6.38;2.55;;;;;;;8.39;100.00;91322.47;5032267;28;20018;-68
2022/05/10 04:53:38;;;;;;;2.83;2.47;;;;;;;8.49;100.00;91332.91;5032394;28;20037;-69
2022/05/10 04:56:05;;;;;;;3.95;2.63;;;;;;;8.83;100.00;91329.25;5032378;28;20459;-69
2022/05/10 04:58:30;;;;;;;10.45;2.50;;;;;;;9.07;100.00;91324.66;5032185;28;20061;-69
2022/05/10 05:01:01;;;;;;;2.95;2.15;;;;;;;9.42;100.00;91325.97;5032120;28;20143;-68
2022/05/10 05:03:26;;;;;;;3.42;3.10;;;;;;;9.81;100.00;91314.13;5032104;28;20033;-69
2022/05/10 05:05:52;;;;;;;13.18;4.40;;;;;;;10.12;99.41;91322.31;5032164;28;20033;-68
2022/05/10 05:08:18;;;;;;;6.32;3.65;;;;;;;10.45;94.70;91317.69;5031903;28;20126;-68
2022/05/10 05:10:44;;;;;;;4.55;2.05;;;;;;;10.72;92.14;91314.19;5032083;28;20034;-68
2022/05/10 05:13:09;;;;;;;4.00;2.85;;;;;;;11.57;91.43;91315.16;5031874;28;20384;-68
2022/05/10 05:15:34;;;;;;;5.53;2.70;;;;;;;14.85;74.08;91312.56;5031996;28;20024;-68
2022/05/10 05:18:03;;;;;;;12.95;2.60;;;;;;;17.38;60.60;91320.34;5031703;28;20491;-67
2022/05/10 05:20:30;;;;;;;8.52;2.45;;;;;;;20.07;51.64;91313.84;5031948;28;20029;-67
2022/05/10 05:22:56;;;;;;;4.20;2.60;;;;;;;21.41;47.12;91314.56;5031902;28;20067;-67
2022/05/10 05:25:22;;;;;;;5.30;2.55;;;;;;;21.39;46.17;91314.16;5033022;28;20021;-66
2022/05/10 05:27:48;;;;;;;9.30;3.20;;;;;;;20.91;45.64;91319.97;5033161;28;20045;-67
2022/05/10 05:30:13;;;;;;;2.80;2.35;;;;;;;22.31;43.91;91323.50;5031664;28;20033;-67
2022/05/10 05:32:40;;;;;;;4.28;2.10;;;;;;;23.50;41.08;91318.72;5031454;28;20061;-67
2022/05/10 05:35:06;;;;;;;3.90;2.65;;;;;;;23.35;40.44;91314.34;5031802;28;20025;-67
2022/05/10 05:37:35;;;;;;;4.22;2.60;;;;;;;22.92;41.55;91322.19;5031262;28;20549;-67
2022/05/10 05:40:13;;;;;;;5.95;2.83;;;;;;;23.97;40.65;91317.06;5031274;28;20056;-66
2022/05/10 05:42:40;;;;;;;5.28;2.20;;;;;;;24.54;38.53;91321.97;5031386;28;20033;-67
2022/05/10 05:45:07;;;;;;;3.70;2.67;;;;;;;25.95;37.31;91321.25;5031306;28;20029;-67
2022/05/10 05:47:32;;;;;;;5.43;2.10;;;;;;;26.43;36.64;91326.19;5031333;28;20496;-67
2022/05/10 05:49:58;;;;;;;4.45;3.25;;;;;;;26.98;35.11;91325.47;5030313;28;20048;-68
2022/05/10 05:52:25;;;;;;;9.82;3.33;;;;;;;26.06;36.72;91320.47;5031084;28;20460;-67
2022/05/10 05:54:51;;;;;;;4.25;3.10;;;;;;;25.43;37.16;91324.84;5031321;28;20030;-68
2022/05/10 05:57:18;;;;;;;4.88;3.28;;;;;;;25.23;38.17;91330.66;5030950;28;20087;-68
2022/05/10 05:59:43;;;;;;;4.45;2.90;;;;;;;25.36;37.30;91322.88;5031046;28;20061;-66
2022/05/10 06:02:18;;;;;;;4.28;2.88;;;;;;;27.03;35.53;91322.38;5031110;28;20060;-67
2022/05/10 06:04:44;;;;;;;5.53;2.92;;;;;;;28.95;32.97;91329.88;5031087;28;20038;-67
2022/05/10 06:07:09;;;;;;;3.75;2.65;;;;;;;30.92;30.70;91337.84;5031158;28;20558;-67
2022/05/10 06:09:38;;;;;;;2.70;2.25;;;;;;;31.58;29.31;91331.31;5031280;28;20108;-67
2022/05/10 06:12:06;;;;;;;4.35;2.33;;;;;;;32.42;29.16;91320.56;5031115;28;20080;-67
2022/05/10 06:14:32;;;;;;;7.13;2.95;;;;;;;31.07;29.52;91335.56;5031033;28;20037;-67
2022/05/10 06:16:58;;;;;;;6.70;2.85;;;;;;;29.26;31.23;91331.38;5030792;28;20035;-68
2022/05/10 06:19:24;;;;;;;5.20;2.50;;;;;;;31.12;29.29;91342.56;5031145;28;20497;-67
2022/05/10 06:21:51;;;;;;;3.03;2.70;;;;;;;29.77;30.42;91335.69;5031074;28;20034;-67
2022/05/10 06:24:17;;;;;;;5.50;2.70;;;;;;;28.99;32.04;91336.06;5030904;28;20029;-67
2022/05/10 06:26:42;;;;;;;6.95;3.40;;;;;;;29.25;31.50;91327.09;5031145;28;20212;-68
2022/05/10 06:29:08;;;;;;;2.95;2.65;;;;;;;29.54;31.34;91332.16;5030957;28;20048;-67
2022/05/10 06:31:33;;;;;;;6.05;3.00;;;;;;;31.67;28.86;91336.19;5030762;28;20029;-67
2022/05/10 06:33:59;;;;;;;2.95;2.47;;;;;;;30.83;29.50;91339.66;5030877;28;20030;-67
2022/05/10 06:36:24;;;;;;;6.65;3.33;;;;;;;31.62;28.91;91336.72;5030853;28;20037;-67
2022/05/10 06:38:50;;;;;;;4.95;3.05;;;;;;;31.29;28.99;91333.94;5030900;28;20029;-68
2022/05/10 06:41:16;;;;;;;7.50;3.00;;;;;;;31.89;28.19;91328.22;5030761;28;20045;-68
2022/05/10 06:43:41;;;;;;;7.95;2.65;;;;;;;29.88;29.33;91326.50;5030831;28;20036;-68
2022/05/10 06:46:17;;;;;;;4.43;2.20;;;;;;;29.73;29.69;91334.19;5030766;28;20484;-68
2022/05/10 06:48:45;;;;;;;5.70;2.33;;;;;;;29.64;30.69;91320.22;5009007;28;20208;-68
2022/05/10 06:51:12;;;;;;;6.50;2.75;;;;;;;29.46;31.03;91326.78;5010825;28;20026;-69
2022/05/10 06:53:37;;;;;;;5.63;2.28;;;;;;;27.04;33.64;91326.66;5010665;28;20109;-69
2022/05/10 06:56:04;;;;;;;6.45;2.50;;;;;;;26.54;36.13;91340.56;5010632;28;20026;-69
2022/05/10 06:58:30;;;;;;;23.50;5.32;;;;;;;28.12;32.91;91330.06;5010523;28;20041;-68
2022/05/10 07:00:55;;;;;;;3.20;2.13;;;;;;;28.52;33.27;91320.22;5011977;28;20018;-68
2022/05/10 07:03:33;;;;;;;6.72;2.78;;;;;;;27.82;33.57;91321.78;5014555;28;20030;-69
2022/05/10 07:06:00;;;;;;;6.53;2.53;;;;;;;28.67;32.89;91329.03;5014568;28;20100;-67
2022/05/10 07:08:26;;;;;;;4.13;2.60;;;;;;;27.93;33.96;91319.69;5014401;28;20088;-68
2022/05/10 07:10:52;;;;;;;8.18;3.35;;;;;;;28.89;32.95;91322.13;5013269;28;20033;-68
2022/05/10 07:13:20;;;;;;;2.35;2.10;;;;;;;30.00;31.15;91318.44;5021921;28;20157;-68
2022/05/10 07:15:46;;;;;;;6.30;3.03;;;;;;;30.46;30.51;91316.06;5033294;28;20029;-68
2022/05/10 07:18:12;;;;;;;2.00;1.80;;;;;;;31.00;29.12;91313.75;5033376;28;20033;-68
2022/05/10 07:20:38;;;;;;;6.15;1.50;;;;;;;32.09;28.25;91312.38;5033340;28;20057;-68
2022/05/10 07:23:04;;;;;;;8.93;2.33;;;;;;;31.43;29.89;91313.59;5033136;28;20021;-67
2022/05/10 07:25:30;;;;;;;4.65;4.25;;;;;;;30.04;29.99;91318.38;5033239;28;20406;-68
2022/05/10 07:27:56;;;;;;;3.67;2.75;;;;;;;29.32;32.71;91316.00;5023673;28;20021;-67
2022/05/10 07:30:24;;;;;;;4.05;1.80;;;;;;;29.71;30.19;91320.91;5032624;28;20045;-68
2022/05/10 07:32:50;;;;;;;2.13;1.60;;;;;;;30.89;28.95;91313.97;5020945;28;20044;-68
2022/05/10 07:35:17;;;;;;;3.38;1.60;;;;;;;34.32;25.87;91317.16;5013785;28;20092;-68
2022/05/10 07:37:42;;;;;;;4.65;2.45;;;;;;;34.48;26.44;91319.00;5013664;28;20482;-68
2022/05/10 07:40:11;;;;;;;3.50;1.75;;;;;;;31.06;27.46;91325.00;5013823;28;20026;-67
2022/05/10 07:42:40;;;;;;;7.70;3.45;;;;;;;28.38;29.98;91314.91;5013281;28;20030;-68
2022/05/10 07:45:08;;;;;;;4.45;2.10;;;;;;;29.19;29.74;91318.56;5013591;28;20415;-67
2022/05/10 07:47:33;;;;;;;7.57;2.00;;;;;;;32.04;28.19;91317.63;5013654;28;20030;-67
2022/05/10 07:49:59;;;;;;;4.10;1.75;;;;;;;30.84;28.54;91321.97;5013443;28;20175;-67
2022/05/10 07:52:25;;;;;;;2.88;1.85;;;;;;;30.62;29.34;91318.91;5013615;28;20026;-67
2022/05/10 07:54:50;;;;;;;2.67;1.77;;;;;;;31.84;26.86;91325.97;5013655;28;20523;-67
2022/05/10 07:57:16;;;;;;;2.53;1.60;;;;;;;30.11;27.59;91319.03;5013082;28;20029;-66
2022/05/10 07:59:41;;;;;;;1.67;1.45;;;;;;;30.54;27.86;91323.72;5013707;28;20571;-66
2022/05/10 08:02:07;;;;;;;2.90;2.03;;;;;;;32.07;26.18;91320.28;5013534;28;20026;-66
2022/05/10 08:04:33;;;;;;;1.85;1.67;;;;;;;29.65;26.38;91319.03;5013512;28;20036;-63
2022/05/10 08:06:59;;;;;;;3.45;1.77;;;;;;;29.70;27.99;91313.88;5013214;28;20109;-63
2022/05/10 08:09:25;;;;;;;4.07;1.98;;;;;;;31.01;27.25;91320.81;5013299;28;20133;-65
2022/05/10 08:11:50;;;;;;;4.65;1.42;;;;;;;31.35;26.55;91322.44;5012370;28;20022;-63
2022/05/10 08:14:15;;;;;;;1.90;1.60;;;;;;;30.81;27.30;91312.59;5012848;28;20026;-63
2022/05/10 08:16:41;;;;;;;2.90;1.70;;;;;;;30.22;26.27;91315.31;5013018;28;20026;-64
2022/05/10 08:19:06;;;;;;;2.05;1.85;;;;;;;30.18;27.53;91318.16;5013061;28;20525;-63
2022/05/10 08:21:32;;;;;;;4.47;1.95;;;;;;;31.70;25.91;91321.56;5012905;28;20033;-64
2022/05/10 08:23:57;;;;;;;2.22;1.70;;;;;;;30.91;27.64;91310.81;5012784;28;20057;-64
2022/05/10 08:26:24;;;;;;;1.73;1.63;;;;;;;32.41;25.53;91319.03;5012369;28;20508;-64
2022/05/10 08:28:51;;;;;;;1.98;1.77;;;;;;;32.26;26.06;91310.34;5012628;28;20040;-64
2022/05/10 08:31:17;;;;;;;2.67;1.80;;;;;;;29.92;26.56;91319.75;5012681;28;20102;-64
2022/05/10 08:33:44;;;;;;;2.20;1.70;;;;;;;31.59;27.10;91321.84;5011521;28;20065;-63
2022/05/10 08:36:11;;;;;;;2.85;1.85;;;;;;;30.59;26.71;91309.47;5012689;28;20018;-66
2022/05/10 08:38:37;;;;;;;1.85;1.75;;;;;;;32.55;26.18;91318.66;5012605;28;20117;-66
2022/05/10 08:41:20;;;;;;;2.83;1.85;;;;;;;29.74;26.28;91317.31;5012498;28;20034;-65
2022/05/10 08:44:04;;;;;;;;;;;;;;;27.41;28.99;91320.53;5013312;28;20029;-64
2022/05/10 08:46:41;;;;;;;7.10;2.40;;;;;;;28.09;29.62;91314.47;5013063;28;19963;-65
2022/05/10 08:49:14;;;;;;;2.22;1.67;;;;;;;29.87;27.40;91320.25;5013035;28;20053;-64
2022/05/10 08:51:39;;;;;;;2.05;1.85;;;;;;;31.22;26.05;91322.31;5012879;28;20057;-64
2022/05/10 08:54:05;;;;;;;2.75;1.92;;;;;;;32.62;26.19;91312.94;5012665;28;20068;-65
2022/05/10 08:56:51;;;;;;;2.80;1.75;;;;;;;30.77;25.83;91322.09;5012540;28;20492;-65
2022/05/10 08:59:54;;;;;;;2.53;1.65;;;;;;;28.14;27.75;91311.28;5012521;28;20036;-64
2022/05/10 09:02:50;;;;;;;2.70;2.00;;;;;;;29.86;26.57;91304.19;5012613;28;20026;-64
2022/05/10 09:05:26;;;;;;;6.03;1.92;;;;;;;30.87;25.97;91310.13;5012517;28;20538;-64
2022/05/10 09:07:54;;;;;;;2.25;2.05;;;;;;;30.81;26.53;91314.56;5012674;28;20049;-65
2022/05/10 09:10:33;;;;;;;1.90;1.80;;;;;;;30.94;27.04;91308.00;5012524;28;20121;-64
2022/05/10 09:13:05;;;;;;;2.50;1.83;;;;;;;31.28;26.37;91313.16;5012454;28;20065;-65
2022/05/10 09:15:36;;;;;;;3.10;1.83;;;;;;;31.44;26.13;91314.38;5012353;28;20064;-65
2022/05/10 09:18:25;;;;;;;3.10;1.92;;;;;;;32.31;26.24;91307.09;5012405;28;20037;-64
2022/05/10 09:21:21;;;;;;;1.77;1.48;;;;;;;31.04;26.22;91311.69;5011996;28;20060;-64
2022/05/10 09:24:16;;;;;;;4.20;1.63;;;;;;;31.75;24.76;91304.59;5012030;28;20480;-65
2022/05/10 09:26:44;;;;;;;1.73;1.63;;;;;;;29.57;27.77;91298.44;5012060;28;20029;-64
2022/05/10 09:29:21;;;;;;;9.10;1.98;;;;;;;30.50;27.31;91309.28;5011992;28;20033;-65
2022/05/10 09:34:46;;;;;;;1.50;1.40;;;;;;;31.32;27.61;91302.06;5012287;28;20092;-65
2022/05/10 09:37:27;;;;;;;5.80;2.28;;;;;;;33.14;25.09;91300.03;5011806;28;20033;-65
2022/05/10 09:39:55;;;;;;;1.90;1.80;;;;;;;31.28;25.44;91296.66;5011963;28;20507;-65
2022/05/10 09:42:30;;;;;;;1.63;1.52;;;;;;;29.97;26.41;91294.56;5011849;28;20022;-64
2022/05/10 09:45:05;;;;;;;1.73;1.63;;;;;;;28.91;28.20;91286.88;5011727;28;20026;-64
2022/05/10 09:47:31;;;;;;;2.75;1.92;;;;;;;28.91;29.30;91281.41;5011703;28;20600;-64
2022/05/10 09:50:17;;;;;;;2.70;1.80;;;;;;;30.70;27.05;91285.34;5011453;28;20120;-64
2022/05/10 09:52:44;;;;;;;3.95;1.80;;;;;;;31.06;27.09;91287.31;5011890;28;20840;-64
2022/05/10 09:55:24;;;;;;;9.63;1.88;;;;;;;30.65;26.75;91288.59;5011830;28;20104;-64
2022/05/10 09:57:50;;;;;;;2.90;1.90;;;;;;;28.65;28.17;91273.91;5011549;28;20030;-64
2022/05/10 10:00:16;;;;;;;3.65;1.52;;;;;;;26.37;31.09;91275.94;5011549;28;20036;-64
2022/05/10 10:02:43;;;;;;;2.22;1.60;;;;;;;23.74;32.84;91279.31;5011410;28;20030;-64
2022/05/10 10:05:25;;;;;;;3.80;1.70;;;;;;;22.27;35.42;91279.31;5011511;28;20040;-64
2022/05/10 10:07:56;;;;;;;3.83;2.80;;;;;;;21.85;36.06;91282.28;5011318;28;20025;-64
2022/05/10 10:10:36;;;;;;;3.80;1.90;;;;;;;25.92;33.90;91278.44;5011374;28;20096;-64
2022/05/10 10:13:29;;;;;;;2.53;1.70;;;;;;;26.58;30.06;91264.13;5011123;28;20124;-63
2022/05/10 10:15:55;;;;;;;1.83;1.70;;;;;;;24.61;32.96;91262.13;5010732;28;20065;-64
2022/05/10 10:18:39;;;;;;;7.15;1.88;;;;;;;23.74;34.30;91264.97;5011190;28;20105;-64
2022/05/10 10:21:05;;;;;;;1.83;1.70;;;;;;;22.99;35.27;91262.53;5011231;28;20026;-64
2022/05/10 10:23:38;;;;;;;6.53;2.08;;;;;;;25.21;36.05;91266.88;5011186;28;20432;-64
2022/05/10 10:26:13;;;;;;;3.40;1.50;;;;;;;28.21;30.22;91261.16;5011122;28;20053;-64
2022/05/10 10:28:57;;;;;;;3.83;1.65;;;;;;;30.13;29.54;91254.72;5011091;28;20036;-64
2022/05/10 10:31:30;;;;;;;1.40;1.30;;;;;;;31.85;25.70;91248.50;5011237;28;20037;-64
2022/05/10 10:34:01;;;;;;;3.42;1.63;;;;;;;33.06;24.53;91250.63;5011391;28;20108;-65
2022/05/10 10:36:37;;;;;;;1.88;1.77;;;;;;;31.33;26.61;91256.09;5013287;28;20030;-64
2022/05/10 10:39:22;;;;;;;5.15;1.70;;;;;;;31.35;26.08;91261.94;5015185;28;20053;-65
2022/05/10 10:41:53;;;;;;;3.10;1.55;;;;;;;28.65;28.27;91252.00;5014947;28;20026;-64
2022/05/10 10:44:22;;;;;;;2.60;1.55;;;;;;;30.74;27.53;91246.03;5014991;28;20064;-65
2022/05/10 10:47:00;;;;;;;2.72;1.63;;;;;;;27.01;29.80;91245.53;5014897;28;20091;-64
2022/05/10 10:49:37;;;;;;;1.77;1.60;;;;;;;27.28;31.61;91244.91;5013528;28;20397;-64
2022/05/10 10:52:03;;;;;;;2.55;1.60;;;;;;;25.24;33.65;91242.34;5014960;28;20037;-64
2022/05/10 10:54:31;;;;;;;3.28;2.03;;;;;;;27.59;29.31;91237.59;5014889;28;20042;-64
2022/05/10 10:56:56;;;;;;;1.50;1.40;;;;;;;28.54;28.64;91232.22;5014674;28;20122;-64
2022/05/10 10:59:30;;;;;;;4.30;1.40;;;;;;;27.14;28.86;91252.06;5015170;28;20471;-64
2022/05/10 11:02:17;;;;;;;1.73;1.63;;;;;;;24.70;32.80;91232.63;5014865;28;20280;-64
2022/05/10 11:04:48;;;;;;;4.53;1.70;;;;;;;26.03;32.26;91233.97;5014756;28;20040;-64
2022/05/10 11:07:14;;;;;;;3.72;1.52;;;;;;;28.80;30.52;91230.69;5014902;28;20041;-64
2022/05/10 11:10:09;;;;;;;2.40;1.40;;;;;;;29.59;28.79;91228.25;5014795;28;20519;-64
2022/05/10 11:12:52;;;;;;;3.33;1.50;;;;;;;28.25;29.05;91221.63;5014543;28;20504;-64
2022/05/10 11:15:33;;;;;;;2.17;1.70;;;;;;;28.51;28.91;91228.34;5014795;28;20041;-64
2022/05/10 11:18:30;;;;;;;2.40;1.50;;;;;;;28.65;28.55;91219.16;5014512;28;20559;-64
2022/05/10 11:21:06;;;;;;;2.35;1.70;;;;;;;30.46;28.12;91226.22;5012450;28;20060;-64
2022/05/10 11:23:43;;;;;;;1.40;1.30;;;;;;;31.16;27.47;91228.56;5014361;28;20053;-64
2022/05/10 11:26:51;;;;;;;7.10;1.90;;;;;;;29.39;28.50;91213.72;5014431;28;20049;-64
2022/05/10 11:29:35;;;;;;;1.75;1.40;;;;;;;25.67;31.61;91223.19;5014305;28;20053;-64
2022/05/10 11:32:31;;;;;;;1.92;1.73;;;;;;;26.90;31.82;91220.25;5014082;28;20107;-64
2022/05/10 11:35:06;;;;;;;2.10;1.55;;;;;;;28.19;29.83;91208.81;5014127;28;20044;-64
2022/05/10 11:37:42;;;;;;;4.35;1.50;;;;;;;27.90;30.83;91206.41;5014113;28;20038;-64
2022/05/10 11:40:35;;;;;;;5.93;1.77;;;;;;;29.46;28.19;91197.16;5014088;28;20497;-64
2022/05/10 11:43:36;;;;;;;4.95;1.60;;;;;;;28.58;28.03;91205.59;5013878;28;20042;-64
2022/05/10 11:46:46;;;;;;;2.42;1.52;;;;;;;29.68;27.49;91194.81;5014290;28;20034;-64
2022/05/10 11:49:49;;;;;;;1.60;1.50;;;;;;;26.67;29.53;91201.72;5012922;28;20042;-64
2022/05/10 11:52:43;;;;;;;1.90;1.50;;;;;;;29.17;29.27;91188.63;5013860;28;20042;-64
2022/05/10 11:55:28;;;;;;;1.30;1.20;;;;;;;29.88;26.39;91192.09;5013820;28;20036;-64
2022/05/10 11:57:58;;;;;;;1.33;1.23;;;;;;;30.85;25.65;91186.13;5013643;28;20061;-64
2022/05/10 12:00:26;;;;;;;1.40;1.30;;;;;;;29.82;25.82;91189.03;5013812;28;20112;-64